Time;durP1;ratioP1;P1;durP2;ratioP2;P2;SDS_P1;SDS_P2;PMS_P1;PMS_P2;Temp;Humidity;BMP_temperature;BMP_pressure;BME280_temperature;BME280_humidity;BME280_pressure;Samples;Min_cycle;Max_cycle;Signal;HPM_P1;HPM_P2
2021/01/22 00:01:36;;;;;;;;;;;19.00;57.10;;;;;;5092361;28;1312;-65
2021/01/22 00:04:02;;;;;;;;;;;19.00;57.20;;;;;;5092185;28;1268;-66
2021/01/22 00:06:28;;;;;;;;;;;18.90;57.10;;;;;;5091068;28;1387;-67
2021/01/22 00:08:53;;;;;;;;;;;19.00;57.20;;;;;;5092630;28;1914;-68
2021/01/22 00:11:19;;;;;;;;;;;18.90;57.20;;;;;;5091141;28;1336;-67
2021/01/22 00:13:44;;;;;;;;;;;18.90;57.20;;;;;;5085748;28;1400;-66
2021/01/22 00:16:09;;;;;;;;;;;18.90;57.20;;;;;;5090743;28;1320;-65
2021/01/22 00:18:35;;;;;;;;;;;18.90;57.20;;;;;;5090817;28;1268;-65
2021/01/22 00:21:01;;;;;;;;;;;18.90;57.20;;;;;;5092129;28;1265;-67
2021/01/22 00:23:27;;;;;;;;;;;18.90;57.20;;;;;;5090775;28;1195;-67
2021/01/22 00:25:52;;;;;;;;;;;18.90;57.20;;;;;;5090488;28;1273;-68
2021/01/22 00:28:18;;;;;;;;;;;18.90;57.20;;;;;;5090370;28;1957;-68
2021/01/22 00:30:43;;;;;;;;;;;18.90;57.30;;;;;;5092224;28;1075;-69
2021/01/22 00:33:09;;;;;;;;;;;18.90;57.30;;;;;;5091921;28;1244;-65
2021/01/22 00:35:34;;;;;;;;;;;18.90;57.30;;;;;;5090623;28;1288;-69
2021/01/22 00:38:00;;;;;;;;;;;18.90;57.30;;;;;;5090602;28;1426;-66
2021/01/22 00:40:25;;;;;;;;;;;18.90;57.30;;;;;;5090594;28;1259;-67
2021/01/22 00:42:51;;;;;;;;;;;18.90;57.30;;;;;;5090512;28;1078;-67
2021/01/22 00:45:16;;;;;;;;;;;18.80;57.30;;;;;;5091745;28;1052;-68
2021/01/22 00:47:42;;;;;;;;;;;18.90;57.30;;;;;;5090691;28;1909;-68
2021/01/22 00:50:07;;;;;;;;;;;18.90;57.40;;;;;;5092056;28;1110;-68
2021/01/22 00:52:33;;;;;;;;;;;18.90;57.40;;;;;;5092273;28;1144;-68
2021/01/22 00:54:58;;;;;;;;;;;18.80;57.40;;;;;;5090286;28;1267;-68
2021/01/22 00:57:24;;;;;;;;;;;18.80;57.40;;;;;;5090376;28;1344;-68
2021/01/22 00:59:49;;;;;;;;;;;18.80;57.40;;;;;;5091767;28;1206;-66
2021/01/22 01:02:15;;;;;;;;;;;18.80;57.40;;;;;;5094552;28;1113;-67
2021/01/22 01:04:40;;;;;;;;;;;18.80;57.40;;;;;;5095615;28;1063;-66
2021/01/22 01:07:06;;;;;;;;;;;18.80;57.40;;;;;;5093987;28;1902;-67
2021/01/22 01:09:31;;;;;;;;;;;18.80;57.40;;;;;;5094164;28;1455;-66
2021/01/22 01:11:57;;;;;;;;;;;18.80;57.40;;;;;;5094196;28;1332;-66
2021/01/22 01:14:22;;;;;;;;;;;18.80;57.50;;;;;;5089929;28;1050;-66
2021/01/22 01:16:48;;;;;;;;;;;18.80;57.40;;;;;;5093709;28;1389;-66
2021/01/22 01:19:13;;;;;;;;;;;18.80;57.50;;;;;;5095252;28;1239;-66
2021/01/22 01:21:38;;;;;;;;;;;18.80;57.50;;;;;;5095276;28;1236;-66
2021/01/22 01:24:04;;;;;;;;;;;18.80;57.50;;;;;;5094825;28;1269;-66
2021/01/22 01:26:30;;;;;;;;;;;18.80;57.50;;;;;;5093588;28;1545;-66
2021/01/22 01:28:55;;;;;;;;;;;18.80;57.50;;;;;;5093687;28;1898;-66
2021/01/22 01:31:21;;;;;;;;;;;18.80;57.50;;;;;;5094986;28;1265;-66
2021/01/22 01:33:46;;;;;;;;;;;18.80;57.50;;;;;;5094904;28;1316;-66
2021/01/22 01:36:11;;;;;;;;;;;18.80;57.50;;;;;;5094689;28;1285;-66
2021/01/22 01:38:37;;;;;;;;;;;18.80;57.60;;;;;;5094706;28;1432;-66
2021/01/22 01:41:02;;;;;;;;;;;18.80;57.50;;;;;;5094675;28;1265;-66
2021/01/22 01:43:28;;;;;;;;;;;18.80;57.60;;;;;;5093356;28;1249;-66
2021/01/22 01:45:53;;;;;;;;;;;18.80;57.50;;;;;;5094598;28;1041;-66
2021/01/22 01:48:19;;;;;;;;;;;18.80;57.60;;;;;;5094825;28;1965;-66
2021/01/22 01:50:44;;;;;;;;;;;18.80;57.60;;;;;;5093313;28;1312;-66
2021/01/22 01:53:10;;;;;;;;;;;18.80;57.60;;;;;;5094408;28;1349;-66
2021/01/22 01:55:35;;;;;;;;;;;18.80;57.60;;;;;;5093068;28;1390;-66
2021/01/22 01:58:01;;;;;;;;;;;18.70;57.60;;;;;;5092688;28;1214;-66
2021/01/22 02:00:27;;;;;;;;;;;18.70;57.60;;;;;;5093280;28;1355;-66
2021/01/22 02:02:52;;;;;;;;;;;18.70;57.60;;;;;;5094467;28;1324;-66
2021/01/22 02:05:18;;;;;;;;;;;18.70;57.60;;;;;;5093104;28;1359;-66
2021/01/22 02:07:43;;;;;;;;;;;18.70;57.60;;;;;;5094118;28;1906;-66
2021/01/22 02:10:09;;;;;;;;;;;18.70;57.60;;;;;;5094098;28;1265;-66
2021/01/22 02:12:35;;;;;;;;;;;18.70;57.60;;;;;;5090546;28;1292;-66
2021/01/22 02:15:00;;;;;;;;;;;18.70;57.60;;;;;;5088761;28;1937;-66
2021/01/22 02:17:26;;;;;;;;;;;18.70;57.60;;;;;;5092824;28;1353;-66
2021/01/22 02:19:54;;;;;;;;;;;18.70;57.60;;;;;;5092927;28;1346;-66
2021/01/22 02:22:20;;;;;;;;;;;18.70;57.70;;;;;;5094007;28;1240;-66
2021/01/22 02:24:45;;;;;;;;;;;18.70;57.70;;;;;;5092746;28;1098;-66
2021/01/22 02:27:11;;;;;;;;;;;18.70;57.70;;;;;;5092404;28;1953;-66
2021/01/22 02:29:36;;;;;;;;;;;18.70;57.70;;;;;;5092548;28;1381;-66
2021/01/22 02:32:04;;;;;;;;;;;18.70;57.70;;;;;;5092615;28;1414;-66
2021/01/22 02:34:30;;;;;;;;;;;18.70;57.70;;;;;;5092417;28;1087;-66
2021/01/22 02:36:58;;;;;;;;;;;18.70;57.70;;;;;;5092329;28;1342;-66
2021/01/22 02:39:25;;;;;;;;;;;18.70;57.70;;;;;;5092340;28;1051;-66
2021/01/22 02:41:51;;;;;;;;;;;18.70;57.70;;;;;;5092478;28;1292;-66
2021/01/22 02:44:16;;;;;;;;;;;18.70;57.50;;;;;;5092076;28;1595;-66
2021/01/22 02:46:41;;;;;;;;;;;18.70;57.30;;;;;;5092199;28;1277;-66
2021/01/22 02:49:07;;;;;;;;;;;18.80;57.30;;;;;;5092153;28;1960;-66
2021/01/22 02:51:32;;;;;;;;;;;18.80;57.20;;;;;;5093406;28;1275;-66
2021/01/22 02:53:58;;;;;;;;;;;18.90;57.10;;;;;;5091919;28;1288;-66
2021/01/22 02:56:26;;;;;;;;;;;18.90;57.00;;;;;;5093151;28;1243;-66
2021/01/22 02:59:03;;;;;;;;;;;19.00;56.90;;;;;;5102904;22;3713;-68
2021/01/22 03:01:29;;;;;;;;;;;19.10;56.70;;;;;;5083203;28;2014;-69
2021/01/22 03:04:01;;;;;;;;;;;19.20;56.50;;;;;;5097871;28;1074;-69
2021/01/22 03:06:30;;;;;;;;;;;19.30;56.40;;;;;;5082016;28;1224;-68
2021/01/22 03:08:55;;;;;;;;;;;19.30;56.20;;;;;;5097595;28;1922;-67
2021/01/22 03:11:22;;;;;;;;;;;19.40;56.10;;;;;;5080794;28;1239;-68
2021/01/22 03:13:47;;;;;;;;;;;19.50;55.90;;;;;;5080460;28;1313;-68
2021/01/22 03:16:13;;;;;;;;;;;19.50;55.70;;;;;;5079237;28;1273;-69
2021/01/22 03:18:38;;;;;;;;;;;19.60;55.60;;;;;;5078412;28;1748;-68
2021/01/22 03:21:04;;;;;;;;;;;19.60;55.50;;;;;;5082885;28;1278;-69
2021/01/22 03:23:30;;;;;;;;;;;19.60;55.40;;;;;;5082017;28;1618;-68
2021/01/22 03:25:55;;;;;;;;;;;19.70;55.40;;;;;;5084209;28;1286;-68
2021/01/22 03:28:21;;;;;;;;;;;19.70;55.30;;;;;;5077395;28;1902;-69
2021/01/22 03:30:46;;;;;;;;;;;19.70;55.30;;;;;;5078614;28;1140;-70
2021/01/22 03:33:12;;;;;;;;;;;19.70;55.20;;;;;;5084690;28;1291;-68
2021/01/22 03:35:37;;;;;;;;;;;19.70;55.20;;;;;;5072376;28;1349;-68
2021/01/22 03:38:03;;;;;;;;;;;19.70;55.20;;;;;;5066667;28;1373;-68
2021/01/22 03:40:28;;;;;;;;;;;19.70;55.20;;;;;;5052997;28;1238;-68
2021/01/22 03:42:54;;;;;;;;;;;19.70;55.20;;;;;;5051364;28;1350;-68
2021/01/22 03:45:19;;;;;;;;;;;19.70;55.20;;;;;;5052605;28;1382;-67
2021/01/22 03:47:45;;;;;;;;;;;19.70;55.20;;;;;;5050822;28;1965;-68
2021/01/22 03:50:10;;;;;;;;;;;19.70;55.20;;;;;;5052886;28;1266;-68
2021/01/22 03:52:36;;;;;;;;;;;19.70;55.20;;;;;;5070314;28;1300;-67
2021/01/22 03:55:02;;;;;;;;;;;19.70;55.20;;;;;;5071748;28;1038;-67
2021/01/22 03:57:27;;;;;;;;;;;19.70;55.20;;;;;;5071042;28;1353;-68
2021/01/22 03:59:53;;;;;;;;;;;19.70;55.30;;;;;;5071527;28;1273;-68
2021/01/22 04:02:20;;;;;;;;;;;19.70;55.20;;;;;;5072616;28;1293;-69
2021/01/22 04:04:46;;;;;;;;;;;19.70;55.30;;;;;;5071964;28;1328;-69
2021/01/22 04:07:11;;;;;;;;;;;19.70;55.30;;;;;;5071696;28;1971;-69
2021/01/22 04:09:37;;;;;;;;;;;19.70;55.30;;;;;;5072173;28;1367;-68
2021/01/22 04:12:02;;;;;;;;;;;19.70;55.30;;;;;;5071261;28;1349;-69
2021/01/22 04:14:28;;;;;;;;;;;19.70;55.30;;;;;;5070617;28;1201;-68
2021/01/22 04:16:57;;;;;;;;;;;19.70;55.40;;;;;;5070503;28;1365;-68
2021/01/22 04:19:23;;;;;;;;;;;19.70;55.40;;;;;;5072063;28;1371;-68
2021/01/22 04:21:48;;;;;;;;;;;19.70;55.40;;;;;;5071262;28;1337;-68
2021/01/22 04:24:14;;;;;;;;;;;19.60;55.40;;;;;;5071791;28;1218;-69
2021/01/22 04:26:41;;;;;;;;;;;19.60;55.40;;;;;;5072032;28;1316;-69
2021/01/22 04:29:07;;;;;;;;;;;19.60;55.40;;;;;;5072517;28;1894;-68
2021/01/22 04:31:32;;;;;;;;;;;19.60;55.40;;;;;;5071984;28;1114;-69
2021/01/22 04:33:57;;;;;;;;;;;19.60;55.40;;;;;;5071623;28;1299;-69
2021/01/22 04:36:23;;;;;;;;;;;19.60;55.50;;;;;;5072392;28;1408;-68
2021/01/22 04:38:48;;;;;;;;;;;19.60;55.50;;;;;;5075962;28;1383;-68
2021/01/22 04:41:14;;;;;;;;;;;19.60;55.50;;;;;;5076017;28;1356;-68
2021/01/22 04:43:44;;;;;;;;;;;19.60;55.60;;;;;;5075372;28;1289;-68
2021/01/22 04:46:10;;;;;;;;;;;19.60;55.60;;;;;;5075473;28;1293;-67
2021/01/22 04:48:35;;;;;;;;;;;19.50;55.60;;;;;;5074373;28;1890;-68
2021/01/22 04:51:00;;;;;;;;;;;19.50;55.60;;;;;;5074744;28;1359;-68
2021/01/22 04:53:26;;;;;;;;;;;19.50;55.60;;;;;;5074783;28;1383;-68
2021/01/22 04:55:52;;;;;;;;;;;19.50;55.70;;;;;;5055206;28;1292;-68
2021/01/22 04:58:17;;;;;;;;;;;19.50;55.70;;;;;;5065530;28;1331;-67
2021/01/22 05:00:43;;;;;;;;;;;19.50;55.70;;;;;;5074073;28;1360;-68
2021/01/22 05:03:09;;;;;;;;;;;19.50;55.80;;;;;;5074553;28;1352;-67
2021/01/22 05:05:34;;;;;;;;;;;19.50;55.80;;;;;;5073950;28;1401;-68
2021/01/22 05:08:01;;;;;;;;;;;19.50;55.80;;;;;;5075411;28;1914;-68
2021/01/22 05:10:26;;;;;;;;;;;19.50;55.90;;;;;;5074820;28;1327;-69
2021/01/22 05:12:52;;;;;;;;;;;19.50;55.90;;;;;;5075621;28;1266;-69
2021/01/22 05:15:18;;;;;;;;;;;19.50;55.90;;;;;;5074688;28;1437;-69
2021/01/22 05:18:03;;;;;;;;;;;19.50;56.00;;;;;;5075231;28;1354;-69
2021/01/22 05:20:31;;;;;;;;;;;19.40;55.90;;;;;;5074064;28;1281;-69
2021/01/22 05:22:57;;;;;;;;;;;19.40;55.90;;;;;;5075414;28;1261;-69
2021/01/22 05:25:23;;;;;;;;;;;19.40;55.90;;;;;;5073851;28;1403;-69
2021/01/22 05:27:52;;;;;;;;;;;19.40;56.00;;;;;;5059111;28;1969;-69
2021/01/22 05:30:18;;;;;;;;;;;19.40;56.00;;;;;;5054665;28;1286;-69
2021/01/22 05:32:44;;;;;;;;;;;19.40;56.00;;;;;;5055049;28;1115;-69
2021/01/22 05:35:09;;;;;;;;;;;19.40;56.00;;;;;;5053684;28;1279;-68
2021/01/22 05:37:48;;;;;;;;;;;19.40;56.10;;;;;;5055094;28;1361;-68
2021/01/22 05:40:13;;;;;;;;;;;19.40;56.10;;;;;;5054750;28;1257;-68
2021/01/22 05:42:45;;;;;;;;;;;19.40;56.10;;;;;;5055239;28;1198;-68
2021/01/22 05:45:11;;;;;;;;;;;19.30;56.10;;;;;;5054557;28;1336;-68
2021/01/22 05:47:36;;;;;;;;;;;19.30;56.10;;;;;;5054362;28;1959;-68
2021/01/22 05:50:02;;;;;;;;;;;19.40;56.20;;;;;;5055309;28;1303;-68
2021/01/22 05:52:28;;;;;;;;;;;19.40;56.20;;;;;;5071125;28;1224;-68
2021/01/22 05:54:53;;;;;;;;;;;19.30;56.20;;;;;;5063129;28;1278;-68
2021/01/22 05:57:18;;;;;;;;;;;19.40;56.20;;;;;;5058560;28;1267;-68
2021/01/22 05:59:44;;;;;;;;;;;19.30;56.20;;;;;;5073471;28;1320;-68
2021/01/22 06:02:28;;;;;;;;;;;19.30;56.20;;;;;;5056863;28;1558;-68
2021/01/22 06:05:12;;;;;;;;;;;19.30;56.30;;;;;;5074426;28;1268;-68
2021/01/22 06:07:39;;;;;;;;;;;19.30;56.30;;;;;;5073667;28;1906;-68
2021/01/22 06:10:18;;;;;;;;;;;19.30;56.40;;;;;;5073750;28;1348;-68
2021/01/22 06:12:46;;;;;;;;;;;19.30;56.30;;;;;;5073383;28;1293;-69
2021/01/22 06:15:12;;;;;;;;;;;19.30;56.40;;;;;;5056194;28;1374;-69
2021/01/22 06:17:37;;;;;;;;;;;19.30;56.40;;;;;;5061854;28;1369;-68
2021/01/22 06:20:04;;;;;;;;;;;19.30;56.40;;;;;;5053258;28;1298;-67
2021/01/22 06:22:29;;;;;;;;;;;19.30;56.40;;;;;;5053138;28;1334;-67
2021/01/22 06:24:55;;;;;;;;;;;19.30;56.40;;;;;;5052552;28;1316;-68
2021/01/22 06:27:20;;;;;;;;;;;19.30;56.40;;;;;;5052616;28;1969;-68
2021/01/22 06:29:46;;;;;;;;;;;19.30;56.50;;;;;;5052872;28;1103;-68
2021/01/22 06:32:11;;;;;;;;;;;19.30;56.40;;;;;;5052825;28;1366;-68
2021/01/22 06:34:38;;;;;;;;;;;19.30;56.50;;;;;;5052572;28;1142;-67
2021/01/22 06:37:03;;;;;;;;;;;19.30;56.50;;;;;;5054211;28;1311;-67
2021/01/22 06:39:29;;;;;;;;;;;19.30;56.50;;;;;;5053904;28;1369;-67
2021/01/22 06:41:55;;;;;;;;;;;19.30;56.50;;;;;;5053042;28;1280;-68
2021/01/22 06:44:20;;;;;;;;;;;19.30;56.50;;;;;;5052447;28;1337;-68
2021/01/22 06:46:46;;;;;;;;;;;19.30;56.50;;;;;;5053204;28;1347;-68
2021/01/22 06:49:11;;;;;;;;;;;19.30;56.60;;;;;;5052390;28;1898;-68
2021/01/22 06:51:37;;;;;;;;;;;19.30;56.60;;;;;;5063465;28;1197;-67
2021/01/22 06:54:13;;;;;;;;;;;19.20;56.60;;;;;;5072163;28;1328;-68
2021/01/22 06:56:47;;;;;;;;;;;19.20;56.60;;;;;;5061545;28;1251;-68
2021/01/22 06:59:18;;;;;;;;;;;19.30;56.70;;;;;;5072863;28;1245;-68
2021/01/22 07:01:44;;;;;;;;;;;19.20;56.60;;;;;;5073628;28;1328;-68
2021/01/22 07:04:09;;;;;;;;;;;19.20;56.60;;;;;;5072149;28;1375;-68
2021/01/22 07:06:37;;;;;;;;;;;19.20;56.70;;;;;;5054735;28;1305;-67
2021/01/22 07:09:04;;;;;;;;;;;19.20;56.60;;;;;;5073424;28;1959;-68
2021/01/22 07:11:48;;;;;;;;;;;19.20;56.70;;;;;;5073836;28;1295;-67
2021/01/22 07:14:32;;;;;;;;;;;19.20;56.70;;;;;;5072792;28;1376;-69
2021/01/22 07:16:59;;;;;;;;;;;19.20;56.70;;;;;;5071548;28;1350;-68
2021/01/22 07:19:25;;;;;;;;;;;19.20;56.70;;;;;;5072028;28;1320;-68
2021/01/22 07:21:51;;;;;;;;;;;19.20;56.70;;;;;;5071539;28;1342;-67
2021/01/22 07:24:18;;;;;;;;;;;19.20;56.70;;;;;;5071816;28;1388;-67
2021/01/22 07:26:43;;;;;;;;;;;19.20;56.70;;;;;;5072816;28;1352;-67
2021/01/22 07:29:13;;;;;;;;;;;19.20;56.80;;;;;;5072845;28;1981;-67
2021/01/22 07:32:09;;;;;;;;;;;19.20;56.80;;;;;;5073001;28;1360;-67
2021/01/22 07:34:41;;;;;;;;;;;19.20;56.80;;;;;;5066979;28;1363;-67
2021/01/22 07:37:06;;;;;;;;;;;19.20;56.80;;;;;;5072456;28;1343;-69
2021/01/22 07:39:32;;;;;;;;;;;19.20;56.80;;;;;;5071973;28;1332;-68
2021/01/22 07:42:04;;;;;;;;;;;19.20;56.80;;;;;;5072813;28;1328;-69
2021/01/22 07:44:29;;;;;;;;;;;19.20;56.80;;;;;;5070736;28;1391;-69
2021/01/22 07:46:55;;;;;;;;;;;19.20;56.80;;;;;;5071490;28;1395;-69
2021/01/22 07:49:20;;;;;;;;;;;19.10;56.80;;;;;;5072612;28;1895;-69
2021/01/22 07:51:46;;;;;;;;;;;19.20;56.80;;;;;;5072222;28;1208;-69
2021/01/22 07:54:11;;;;;;;;;;;19.10;56.80;;;;;;5054379;28;1337;-69
2021/01/22 07:56:40;;;;;;;;;;;19.10;56.80;;;;;;5058541;28;1375;-69
2021/01/22 07:59:05;;;;;;;;;;;19.10;56.80;;;;;;5069794;28;1327;-68
2021/01/22 08:01:31;;;;;;;;;;;19.10;56.80;;;;;;5072740;28;1238;-69
2021/01/22 08:03:57;;;;;;;;;;;19.10;56.80;;;;;;5071111;28;1341;-69
2021/01/22 08:06:22;;;;;;;;;;;19.10;56.80;;;;;;5070767;28;1377;-69
2021/01/22 08:08:48;;;;;;;;;;;19.10;56.80;;;;;;5071036;28;1917;-68
2021/01/22 08:11:19;;;;;;;;;;;19.10;56.80;;;;;;5070974;28;1318;-69
2021/01/22 08:13:45;;;;;;;;;;;19.10;56.80;;;;;;5072229;28;1349;-69
2021/01/22 08:16:11;;;;;;;;;;;19.10;56.80;;;;;;5059173;28;1577;-68
2021/01/22 08:18:38;;;;;;;;;;;19.10;56.80;;;;;;5083685;28;1330;-69
2021/01/22 08:21:03;;;;;;;;;;;19.10;56.90;;;;;;5052265;28;1313;-68
2021/01/22 08:23:32;;;;;;;;;;;19.10;56.90;;;;;;5052130;28;1380;-69
2021/01/22 08:25:58;;;;;;;;;;;19.10;56.90;;;;;;5052171;28;1364;-69
2021/01/22 08:28:24;;;;;;;;;;;19.10;56.90;;;;;;5052393;28;1902;-68
2021/01/22 08:30:50;;;;;;;;;;;19.10;56.90;;;;;;5050751;28;1354;-68
2021/01/22 08:33:15;;;;;;;;;;;19.10;56.90;;;;;;5050892;28;1349;-67
2021/01/22 08:35:40;;;;;;;;;;;19.10;56.90;;;;;;5051120;28;1290;-67
2021/01/22 08:38:06;;;;;;;;;;;19.10;56.90;;;;;;5053253;28;1942;-67
2021/01/22 08:40:35;;;;;;;;;;;19.10;56.90;;;;;;5068895;28;1120;-67
2021/01/22 08:43:12;;;;;;;;;;;19.20;57.00;;;;;;5069977;28;1385;-66
2021/01/22 08:45:38;;;;;;;;;;;19.10;56.90;;;;;;5056025;28;1308;-66
2021/01/22 08:48:04;;;;;;;;;;;19.10;56.90;;;;;;5050166;28;1902;-66
2021/01/22 08:50:29;;;;;;;;;;;19.10;56.90;;;;;;5052136;28;1410;-66
2021/01/22 08:53:04;;;;;;;;;;;19.10;56.90;;;;;;5072015;28;1250;-66
2021/01/22 08:55:29;;;;;;;;;;;19.10;56.90;;;;;;5070443;28;2036;-67
2021/01/22 08:58:14;;;;;;;;;;;19.10;56.90;;;;;;5089951;22;2785;-67
2021/01/22 09:00:40;;;;;;;;;;;19.10;56.90;;;;;;5091792;28;1724;-67
2021/01/22 09:03:18;;;;;;;;;;;19.10;56.90;;;;;;5092805;28;1395;-67
2021/01/22 09:05:50;;;;;;;;;;;19.10;56.90;;;;;;5092978;28;1428;-67
2021/01/22 09:08:15;;;;;;;;;;;19.10;57.00;;;;;;5091616;28;1913;-67
2021/01/22 09:10:47;;;;;;;;;;;19.10;56.90;;;;;;5092713;28;1401;-67
2021/01/22 09:13:16;;;;;;;;;;;19.10;56.90;;;;;;5086564;28;1643;-67
2021/01/22 09:15:42;;;;;;;;;;;19.10;57.00;;;;;;5087869;28;1777;-67
2021/01/22 09:18:17;;;;;;;;;;;19.10;57.00;;;;;;5087912;28;1615;-67
2021/01/22 09:20:44;;;;;;;;;;;19.20;57.00;;;;;;5088133;28;1733;-67
2021/01/22 09:23:10;;;;;;;;;;;19.10;57.00;;;;;;5074845;28;1424;-67
2021/01/22 09:25:35;;;;;;;;;;;19.10;57.00;;;;;;5075798;28;1587;-67
2021/01/22 09:28:01;;;;;;;;;;;19.10;56.90;;;;;;5075720;28;1977;-67
2021/01/22 09:30:26;;;;;;;;;;;19.10;57.00;;;;;;5076115;28;1611;-67
2021/01/22 09:32:52;;;;;;;;;;;19.10;57.00;;;;;;5076011;28;1610;-67
2021/01/22 09:35:19;;;;;;;;;;;19.10;57.00;;;;;;5075983;28;1705;-67
2021/01/22 09:37:44;;;;;;;;;;;19.10;56.90;;;;;;5091270;28;1710;-68
2021/01/22 09:40:10;;;;;;;;;;;19.10;56.90;;;;;;5075629;28;1470;-67
2021/01/22 09:42:36;;;;;;;;;;;19.10;57.00;;;;;;5065966;28;1971;-66
2021/01/22 09:45:02;;;;;;;;;;;19.10;57.00;;;;;;5085656;28;1565;-67
2021/01/22 09:47:27;;;;;;;;;;;19.20;57.00;;;;;;5079054;28;1890;-67
2021/01/22 09:49:53;;;;;;;;;;;19.10;57.00;;;;;;5085995;28;1486;-66
2021/01/22 09:52:18;;;;;;;;;;;19.10;57.00;;;;;;5076051;28;1655;-67
2021/01/22 09:54:45;;;;;;;;;;;19.10;57.00;;;;;;5075033;28;1379;-66
2021/01/22 09:57:11;;;;;;;;;;;19.10;57.00;;;;;;5075493;28;1350;-67
2021/01/22 09:59:36;;;;;;;;;;;19.10;57.00;;;;;;5084985;28;1594;-67
2021/01/22 10:02:02;;;;;;;;;;;19.10;56.90;;;;;;5094253;28;1748;-67
2021/01/22 10:04:27;;;;;;;;;;;19.10;57.00;;;;;;5094300;28;1610;-67
2021/01/22 10:06:52;;;;;;;;;;;19.10;56.90;;;;;;5095278;28;1557;-67
2021/01/22 10:09:18;;;;;;;;;;;19.10;56.80;;;;;;5095486;28;1910;-67
2021/01/22 10:11:43;;;;;;;;;;;19.10;56.80;;;;;;5095421;28;1426;-67
2021/01/22 10:14:09;;;;;;;;;;;19.20;56.80;;;;;;5079579;28;1529;-67
2021/01/22 10:16:34;;;;;;;;;;;19.30;56.70;;;;;;5074138;28;1453;-67
2021/01/22 10:19:00;;;;;;;;;;;19.30;56.50;;;;;;5074238;28;1681;-67
2021/01/22 10:21:26;;;;;;;;;;;19.50;56.30;;;;;;5090356;28;1713;-67
2021/01/22 10:23:52;;;;;;;;;;;19.60;56.10;;;;;;5073820;28;1811;-66
2021/01/22 10:26:17;;;;;;;;;;;19.70;55.90;;;;;;5074229;28;1190;-66
2021/01/22 10:28:43;;;;;;;;;;;19.80;55.70;;;;;;5073956;28;1898;-66
2021/01/22 10:31:09;;;;;;;;;;;19.80;55.50;;;;;;5074171;28;1611;-66
2021/01/22 10:33:34;;;;;;;;;;;19.90;55.30;;;;;;5072789;28;1589;-66
2021/01/22 10:36:00;;;;;;;;;;;20.00;55.20;;;;;;5090088;28;1669;-67
2021/01/22 10:38:27;;;;;;;;;;;20.00;55.00;;;;;;5073853;28;1388;-66
2021/01/22 10:40:53;;;;;;;;;;;20.00;54.90;;;;;;5076077;28;1427;-66
2021/01/22 10:43:18;;;;;;;;;;;20.10;54.90;;;;;;5081478;28;1789;-66
2021/01/22 10:45:44;;;;;;;;;;;20.10;54.80;;;;;;5078228;28;1592;-67
2021/01/22 10:48:09;;;;;;;;;;;20.10;54.80;;;;;;5074052;28;1901;-66
2021/01/22 10:50:35;;;;;;;;;;;20.10;54.70;;;;;;5077132;28;1651;-66
2021/01/22 10:53:00;;;;;;;;;;;20.20;54.70;;;;;;5079739;28;1233;-66
2021/01/22 10:55:26;;;;;;;;;;;20.20;54.70;;;;;;5074110;28;1626;-66
2021/01/22 10:57:51;;;;;;;;;;;20.20;54.70;;;;;;5061365;28;1998;-66
2021/01/22 11:00:17;;;;;;;;;;;20.10;54.70;;;;;;5073171;28;1224;-67
2021/01/22 11:02:42;;;;;;;;;;;20.10;54.60;;;;;;5093527;28;1523;-67
2021/01/22 11:05:08;;;;;;;;;;;20.10;54.60;;;;;;5082776;28;1098;-66
2021/01/22 11:07:34;;;;;;;;;;;20.20;54.60;;;;;;5072556;28;1922;-66
2021/01/22 11:09:59;;;;;;;;;;;20.20;54.60;;;;;;5073152;28;1549;-66
2021/01/22 11:12:25;;;;;;;;;;;20.20;54.60;;;;;;5073490;28;1463;-66
2021/01/22 11:14:50;;;;;;;;;;;20.20;54.50;;;;;;5068678;28;1467;-66
2021/01/22 11:17:15;;;;;;;;;;;20.30;54.50;;;;;;5086509;28;1651;-66
2021/01/22 11:19:41;;;;;;;;;;;20.30;54.40;;;;;;5087923;28;1769;-66
2021/01/22 11:22:06;;;;;;;;;;;20.30;54.30;;;;;;5092960;28;1543;-65
2021/01/22 11:24:33;;;;;;;;;;;20.40;54.40;;;;;;5084021;28;1529;-68
2021/01/22 11:26:59;;;;;;;;;;;20.40;54.40;;;;;;5071606;28;1432;-67
2021/01/22 11:29:24;;;;;;;;;;;20.40;54.30;;;;;;5073197;28;1963;-67
2021/01/22 11:31:50;;;;;;;;;;;20.40;54.30;;;;;;5074622;28;1623;-68
2021/01/22 11:34:15;;;;;;;;;;;20.50;54.30;;;;;;5081958;28;1536;-68
2021/01/22 11:36:41;;;;;;;;;;;20.50;54.20;;;;;;5071853;28;1638;-68
2021/01/22 11:39:06;;;;;;;;;;;20.50;54.10;;;;;;5071605;28;1650;-68
2021/01/22 11:41:32;;;;;;;;;;;20.50;54.10;;;;;;5072044;28;1284;-69
2021/01/22 11:43:57;;;;;;;;;;;20.50;54.10;;;;;;5069335;28;1577;-69
2021/01/22 11:46:23;;;;;;;;;;;20.60;54.10;;;;;;5087364;28;1272;-68
2021/01/22 11:48:48;;;;;;;;;;;20.50;54.00;;;;;;5076579;28;1961;-68
2021/01/22 11:51:14;;;;;;;;;;;20.60;54.00;;;;;;5073081;28;1442;-68
2021/01/22 11:53:40;;;;;;;;;;;20.60;54.00;;;;;;5077713;28;1527;-68
2021/01/22 11:56:06;;;;;;;;;;;20.60;53.90;;;;;;5071643;28;1602;-68
2021/01/22 11:58:31;;;;;;;;;;;20.60;53.90;;;;;;5085912;28;1563;-68
2021/01/22 12:00:57;;;;;;;;;;;20.70;53.90;;;;;;5073060;28;1204;-67
2021/01/22 12:03:23;;;;;;;;;;;20.60;53.90;;;;;;5071740;28;1363;-67
2021/01/22 12:05:49;;;;;;;;;;;20.70;53.90;;;;;;5071495;28;1375;-67
2021/01/22 12:08:14;;;;;;;;;;;20.70;53.80;;;;;;5071908;28;1879;-66
2021/01/22 12:10:40;;;;;;;;;;;20.70;53.80;;;;;;5071856;28;1697;-66
2021/01/22 12:13:05;;;;;;;;;;;20.70;53.80;;;;;;5082452;28;1557;-66
2021/01/22 12:15:31;;;;;;;;;;;20.70;53.80;;;;;;5071971;28;1672;-67
2021/01/22 12:17:57;;;;;;;;;;;20.70;53.80;;;;;;5071762;28;1651;-67
2021/01/22 12:20:23;;;;;;;;;;;20.70;53.80;;;;;;5071801;28;1458;-66
2021/01/22 12:22:48;;;;;;;;;;;20.70;53.90;;;;;;5071909;28;1551;-64
2021/01/22 12:25:14;;;;;;;;;;;20.70;53.90;;;;;;5070119;28;1799;-64
2021/01/22 12:27:39;;;;;;;;;;;20.70;53.90;;;;;;5071532;28;1901;-66
2021/01/22 12:30:05;;;;;;;;;;;20.70;53.90;;;;;;5071949;28;1693;-66
2021/01/22 12:32:30;;;;;;;;;;;20.70;54.00;;;;;;5071902;28;1682;-66
2021/01/22 12:34:56;;;;;;;;;;;20.60;54.00;;;;;;5071779;28;1344;-66
2021/01/22 12:37:21;;;;;;;;;;;20.60;54.00;;;;;;5071696;28;1548;-65
2021/01/22 12:39:47;;;;;;;;;;;20.60;54.10;;;;;;5071877;28;1479;-66
2021/01/22 12:42:12;;;;;;;;;;;20.60;54.10;;;;;;5071864;28;1379;-66
2021/01/22 12:44:38;;;;;;;;;;;20.60;54.10;;;;;;5061731;28;1811;-64
2021/01/22 12:47:03;;;;;;;;;;;20.50;54.10;;;;;;5083294;28;1370;-64
2021/01/22 12:49:29;;;;;;;;;;;20.50;54.20;;;;;;5077190;28;1965;-64
2021/01/22 12:51:54;;;;;;;;;;;20.50;54.20;;;;;;5072117;28;1369;-64
2021/01/22 12:54:19;;;;;;;;;;;20.50;54.30;;;;;;5070183;28;1461;-65
2021/01/22 12:56:45;;;;;;;;;;;20.50;54.30;;;;;;5081801;28;1316;-66
2021/01/22 12:59:10;;;;;;;;;;;20.50;54.40;;;;;;5075711;28;1502;-66
2021/01/22 13:01:36;;;;;;;;;;;20.50;54.40;;;;;;5087484;28;1261;-65
2021/01/22 13:04:01;;;;;;;;;;;20.40;54.40;;;;;;5095484;28;1538;-65
2021/01/22 13:06:28;;;;;;;;;;;20.40;54.40;;;;;;5095284;28;1657;-65
2021/01/22 13:08:54;;;;;;;;;;;20.40;54.50;;;;;;5095507;28;1906;-67
2021/01/22 13:11:19;;;;;;;;;;;20.40;54.50;;;;;;5094104;28;1342;-67
2021/01/22 13:13:45;;;;;;;;;;;20.40;54.60;;;;;;5084541;28;1345;-67
2021/01/22 13:16:10;;;;;;;;;;;20.40;54.60;;;;;;5075344;28;1377;-67
2021/01/22 13:18:35;;;;;;;;;;;20.30;54.60;;;;;;5080523;28;1543;-67
2021/01/22 13:21:01;;;;;;;;;;;20.30;54.70;;;;;;5095366;28;1628;-67
2021/01/22 13:23:26;;;;;;;;;;;20.30;54.70;;;;;;5095218;28;1681;-67
2021/01/22 13:25:52;;;;;;;;;;;20.30;54.80;;;;;;5095015;28;1343;-67
2021/01/22 13:28:17;;;;;;;;;;;20.30;54.80;;;;;;5093823;28;1963;-67
2021/01/22 13:30:43;;;;;;;;;;;20.30;54.90;;;;;;5095311;28;959;-66
2021/01/22 13:33:08;;;;;;;;;;;20.20;54.80;;;;;;5095018;28;1617;-67
2021/01/22 13:35:34;;;;;;;;;;;20.20;54.90;;;;;;5094855;28;1250;-67
2021/01/22 13:37:59;;;;;;;;;;;20.20;54.90;;;;;;5073620;28;1832;-67
2021/01/22 13:40:25;;;;;;;;;;;20.20;54.90;;;;;;5090082;28;1184;-67
2021/01/22 13:42:52;;;;;;;;;;;20.20;55.00;;;;;;5074685;28;1566;-67
2021/01/22 13:45:18;;;;;;;;;;;20.20;55.00;;;;;;5074773;28;1374;-66
2021/01/22 13:47:43;;;;;;;;;;;20.10;55.00;;;;;;5074232;28;1894;-67
2021/01/22 13:50:09;;;;;;;;;;;20.20;55.10;;;;;;5073833;28;1258;-67
2021/01/22 13:52:35;;;;;;;;;;;20.10;55.10;;;;;;5079626;28;1151;-67
2021/01/22 13:55:02;;;;;;;;;;;20.10;55.10;;;;;;5094217;28;1661;-67
2021/01/22 13:57:28;;;;;;;;;;;20.10;55.20;;;;;;5088833;28;1383;-66
2021/01/22 13:59:53;;;;;;;;;;;20.10;55.20;;;;;;5074241;28;1609;-67
2021/01/22 14:02:19;;;;;;;;;;;20.10;55.20;;;;;;5074293;28;1530;-67
2021/01/22 14:04:44;;;;;;;;;;;20.10;55.30;;;;;;5073639;28;1264;-67
2021/01/22 14:07:10;;;;;;;;;;;20.00;55.30;;;;;;5074087;28;1458;-67
2021/01/22 14:09:36;;;;;;;;;;;20.00;55.30;;;;;;5073691;28;1982;-67
2021/01/22 14:12:02;;;;;;;;;;;20.00;55.30;;;;;;5074031;28;1453;-67
2021/01/22 14:14:27;;;;;;;;;;;20.00;55.40;;;;;;5080771;28;1363;-67
2021/01/22 14:16:53;;;;;;;;;;;20.00;55.40;;;;;;5093488;28;1651;-67
2021/01/22 14:19:18;;;;;;;;;;;20.00;55.50;;;;;;5076419;28;1378;-67
2021/01/22 14:21:44;;;;;;;;;;;19.90;55.50;;;;;;5064937;28;1246;-67
2021/01/22 14:24:09;;;;;;;;;;;19.90;55.50;;;;;;5064082;28;1374;-68
2021/01/22 14:26:35;;;;;;;;;;;19.90;55.50;;;;;;5060765;28;1249;-68